Time;durP1;ratioP1;P1;durP2;ratioP2;P2;SDS_P1;SDS_P2;PMS_P1;PMS_P2;Temp;Humidity;BMP_temperature;BMP_pressure;BME280_temperature;BME280_humidity;BME280_pressure;Samples;Min_cycle;Max_cycle;Signal;HPM_P1;HPM_P2
2024/04/17 00:02:41;;;;;;;9.65;4.15;;;;;;;19.31;100.00;95895.69;5073443;28;20070;-74
2024/04/17 00:05:25;;;;;;;17.65;4.82;;;;;;;19.35;100.00;95884.25;5091724;28;20089;-75
2024/04/17 00:11:46;;;;;;;12.55;4.18;;;;;;;19.36;100.00;95866.13;5022256;28;20060;-75
2024/04/17 00:18:03;;;;;;;7.95;4.00;;;;;;;19.40;100.00;95871.03;5045789;28;20047;-75
2024/04/17 00:21:27;;;;;;;13.55;4.75;;;;;;;19.35;100.00;95868.00;5072268;28;20047;-74
2024/04/17 00:24:27;;;;;;;13.27;4.53;;;;;;;19.27;100.00;95864.56;4959020;28;20026;-75
2024/04/17 00:27:21;;;;;;;7.05;3.65;;;;;;;19.24;100.00;95863.06;5087037;28;20471;-74
2024/04/17 00:30:12;;;;;;;9.13;3.72;;;;;;;19.21;100.00;95863.47;5090959;28;20085;-74
2024/04/17 00:33:14;;;;;;;16.48;3.85;;;;;;;19.18;100.00;95871.97;5073106;28;20123;-76
2024/04/17 00:35:51;;;;;;;12.65;4.30;;;;;;;19.27;100.00;95857.28;5090781;28;20047;-74
2024/04/17 00:38:43;;;;;;;11.10;4.22;;;;;;;19.28;100.00;95853.53;5090418;28;20027;-75
2024/04/17 00:41:27;;;;;;;13.98;4.43;;;;;;;19.25;100.00;95847.66;5105547;28;20032;-75
2024/04/17 00:44:41;;;;;;;;;;;;;;;;;;;;;
2024/04/17 00:47:17;;;;;;;9.80;4.50;;;;;;;19.20;100.00;95836.53;5028447;28;20043;-75
2024/04/17 00:50:13;;;;;;;15.77;4.85;;;;;;;19.01;100.00;95847.97;5028201;28;20459;-74
2024/04/17 00:53:01;;;;;;;12.25;4.13;;;;;;;18.84;100.00;95842.75;5073327;28;20130;-75
2024/04/17 00:56:01;;;;;;;11.77;4.55;;;;;;;18.71;100.00;95842.56;5073236;28;20031;-75
2024/04/17 00:58:58;;;;;;;16.17;4.53;;;;;;;18.65;100.00;95837.88;5086161;28;20051;-76
2024/04/17 01:02:11;;;;;;;9.98;3.95;;;;;;;18.55;100.00;95837.31;5088702;28;20101;-75
2024/04/17 01:04:51;;;;;;;9.23;4.60;;;;;;;18.54;100.00;95853.75;5084183;28;20122;-75
2024/04/17 01:07:50;;;;;;;11.43;4.72;;;;;;;18.53;100.00;95855.63;5061396;28;20037;-75
2024/04/17 01:11:02;;;;;;;;;;;;;;;;;;;;;
2024/04/17 01:13:39;;;;;;;13.32;4.43;;;;;;;18.28;100.00;95844.16;5054592;28;20044;-75
2024/04/17 01:16:30;;;;;;;11.07;4.18;;;;;;;18.10;100.00;95850.94;5070065;28;20031;-75
2024/04/17 01:22:37;;;;;;;8.45;3.88;;;;;;;18.11;100.00;95844.50;5047911;28;20175;-74
2024/04/17 01:25:51;;;;;;;;;;;;;;;;;;;;;
2024/04/17 01:28:52;;;;;;;;;;;;;;;;;;;;;
2024/04/17 01:32:05;;;;;;;;;;;;;;;;;;;;;
2024/04/17 01:35:12;;;;;;;11.82;4.55;;;;;;;17.81;100.00;95816.56;5061057;28;20036;-75
2024/04/17 01:38:08;;;;;;;17.88;5.60;;;;;;;17.70;100.00;95828.63;5067918;28;20040;-75
2024/04/17 01:41:31;;;;;;;19.42;4.82;;;;;;;17.64;100.00;95821.22;5067595;28;20049;-75
2024/04/17 01:44:52;;;;;;;;;;;;;;;;;;;;;
2024/04/17 01:47:46;;;;;;;;;;;;;;;;;;;;;
2024/04/17 01:50:47;;;;;;;18.30;4.68;;;;;;;17.52;100.00;95809.13;5069068;28;20020;-75
2024/04/17 01:53:37;;;;;;;16.85;4.63;;;;;;;17.48;100.00;95796.97;5070886;28;20056;-75
2024/04/17 01:56:51;;;;;;;18.00;5.45;;;;;;;17.42;100.00;95805.81;5070204;28;20033;-75
2024/04/17 01:59:37;;;;;;;;;;;;;;;;;;;;;
2024/04/17 02:02:19;;;;;;;13.18;5.20;;;;;;;17.39;100.00;95798.06;5074046;28;20130;-75
2024/04/17 02:05:25;;;;;;;17.77;4.97;;;;;;;17.29;100.00;95794.75;5073969;28;20099;-76
2024/04/17 02:08:39;;;;;;;15.50;5.25;;;;;;;17.34;100.00;95793.22;5087083;28;20056;-76
2024/04/17 02:12:10;;;;;;;;;;;;;;;;;;;;;
2024/04/17 02:14:57;;;;;;;12.98;5.13;;;;;;;17.40;100.00;95775.44;5030803;28;20495;-76
2024/04/17 02:21:35;;;;;;;;;;;;;;;;;;;;;
2024/04/17 02:24:54;;;;;;;13.30;4.50;;;;;;;17.35;100.00;95745.38;5069480;28;20391;-76
2024/04/17 02:27:35;;;;;;;16.45;4.78;;;;;;;17.42;100.00;95740.94;5072925;28;20032;-75
2024/04/17 02:30:47;;;;;;;12.82;5.20;;;;;;;17.44;100.00;95738.91;5073039;28;20124;-75
2024/04/17 02:33:49;;;;;;;13.98;5.72;;;;;;;17.40;100.00;95725.94;4993488;28;20044;-75
2024/04/17 02:36:27;;;;;;;25.60;5.77;;;;;;;17.35;100.00;95705.69;5093165;28;20463;-75
2024/04/17 02:39:10;;;;;;;;;;;;;;;;;;;;;
2024/04/17 02:45:45;;;;;;;24.08;6.25;;;;;;;17.57;100.00;95711.28;5078599;28;20166;-75
2024/04/17 02:48:34;;;;;;;16.45;5.32;;;;;;;17.61;100.00;95705.34;5060545;28;20032;-75
2024/04/17 02:51:32;;;;;;;14.63;5.80;;;;;;;17.59;100.00;95715.50;5092514;28;20475;-75
2024/04/17 02:57:42;;;;;;;12.45;5.03;;;;;;;17.91;100.00;95675.59;5092789;28;20050;-74
2024/04/17 03:00:55;;;;;;;;;;;;;;;;;;;;;
2024/04/17 03:03:25;;;;;;;11.63;4.25;;;;;;;18.24;100.00;95687.75;5065853;28;20040;-75
2024/04/17 03:06:08;;;;;;;43.05;5.65;;;;;;;18.28;100.00;95691.75;5058079;28;20106;-76
2024/04/17 03:09:05;;;;;;;19.23;4.90;;;;;;;18.30;100.00;95692.41;5090418;28;20063;-76
2024/04/17 03:11:53;;;;;;;18.23;5.18;;;;;;;18.25;100.00;95689.41;5050437;28;20051;-75
2024/04/17 03:15:03;;;;;;;;;;;;;;;;;;;;;
2024/04/17 03:18:07;;;;;;;13.35;5.20;;;;;;;18.27;100.00;95688.19;5083246;28;20025;-76
2024/04/17 03:24:00;;;;;;;22.15;5.72;;;;;;;18.23;100.00;95686.06;5063380;28;20059;-78
2024/04/17 03:29:58;;;;;;;16.55;7.20;;;;;;;17.87;100.00;95694.91;5051934;28;20047;-78
2024/04/17 03:33:08;;;;;;;15.25;4.97;;;;;;;17.70;100.00;95695.28;5054416;28;20056;-78
2024/04/17 03:36:15;;;;;;;18.75;5.57;;;;;;;17.66;100.00;95700.19;5062273;28;20131;-77
2024/04/17 03:39:04;;;;;;;19.20;5.20;;;;;;;17.56;100.00;95704.22;5064844;28;20419;-75
2024/04/17 03:41:59;;;;;;;27.58;9.13;;;;;;;17.55;100.00;95705.22;5087701;28;20024;-76
2024/04/17 03:45:03;;;;;;;17.58;5.18;;;;;;;17.58;100.00;95708.41;5067919;28;20033;-75
2024/04/17 03:48:05;;;;;;;20.17;7.53;;;;;;;17.56;100.00;95717.72;5071574;28;20054;-74
2024/04/17 03:54:36;;;;;;;16.25;8.40;;;;;;;17.49;100.00;95720.28;5052909;28;20123;-74
2024/04/17 03:57:58;;;;;;;;;;;;;;;;;;;;;
2024/04/17 04:07:32;;;;;;;11.52;4.50;;;;;;;17.35;100.00;95710.25;5076251;28;20416;-75
2024/04/17 04:10:21;;;;;;;11.98;4.50;;;;;;;17.38;100.00;95720.69;5099108;28;20080;-78
2024/04/17 04:13:00;;;;;;;11.27;4.80;;;;;;;17.41;100.00;95728.44;5090863;28;20054;-81
2024/04/17 04:15:39;;;;;;;18.80;7.25;;;;;;;17.45;100.00;95731.63;5090786;28;20343;-73
2024/04/17 04:21:33;;;;;;;;;;;;;;;;;;;;;
2024/04/17 04:24:21;;;;;;;;;;;;;;;;;;;;;
2024/04/17 04:27:08;;;;;;;;;;;;;;;;;;;;;
2024/04/17 04:30:11;;;;;;;25.08;6.45;;;;;;;17.46;100.00;95736.88;5091232;28;20027;-77
2024/04/17 04:36:25;;;;;;;17.40;5.85;;;;;;;17.22;100.00;95746.00;5060183;28;20496;-73
2024/04/17 04:39:19;;;;;;;18.65;5.40;;;;;;;17.18;100.00;95757.34;5067399;28;20111;-75
2024/04/17 04:43:12;;;;;;;;;;;;;;;;;;;;;
2024/04/17 04:45:31;;;;;;;13.73;5.50;;;;;;;17.09;100.00;95753.84;5054126;28;20488;-75
2024/04/17 04:51:25;;;;;;;19.25;6.03;;;;;;;17.05;100.00;95765.19;5074738;28;20062;-76
2024/04/17 04:54:26;;;;;;;17.65;6.28;;;;;;;16.97;100.00;95773.34;5090656;28;20035;-75
2024/04/17 04:58:06;;;;;;;;;;;;;;;;;;;;;
2024/04/17 05:01:22;;;;;;;16.15;5.82;;;;;;;17.28;100.00;95787.69;5084361;28;20048;-76
2024/04/17 05:07:35;;;;;;;21.50;8.45;;;;;;;17.52;100.00;95779.38;5088374;28;20093;-75
2024/04/17 05:13:41;;;;;;;18.13;7.07;;;;;;;17.71;100.00;95783.50;5056808;28;20046;-76
2024/04/17 05:16:17;;;;;;;20.48;9.73;;;;;;;17.67;100.00;95788.41;5105156;28;20028;-76
2024/04/17 05:19:53;;;;;;;14.95;6.97;;;;;;;17.56;100.00;95790.72;5086921;28;20035;-76
2024/04/17 05:22:54;;;;;;;29.08;7.50;;;;;;;17.38;100.00;95792.84;5093112;28;20116;-77
2024/04/17 05:25:48;;;;;;;33.77;12.30;;;;;;;17.22;100.00;95794.66;5103619;28;20403;-77
2024/04/17 05:32:18;;;;;;;19.20;5.30;;;;;;;16.57;100.00;95783.34;5094041;28;20032;-77
2024/04/17 05:35:28;;;;;;;10.48;3.13;;;;;;;16.38;100.00;95780.16;5101162;27;20482;-78
2024/04/17 05:38:51;;;;;;;12.48;3.90;;;;;;;16.19;100.00;95792.19;5134777;27;20054;-79
2024/04/17 05:42:08;;;;;;;;;;;;;;;;;;;;;
2024/04/17 05:45:03;;;;;;;2.65;1.33;;;;;;;15.89;100.00;95787.53;5092310;28;20505;-83
2024/04/17 05:48:07;;;;;;;0.15;0.15;;;;;;;15.97;100.00;95790.22;5091030;28;20110;-81
2024/04/17 05:50:56;;;;;;;0.10;0.10;;;;;;;15.95;100.00;95776.06;5088821;27;20495;-85
2024/04/17 05:54:17;;;;;;;;;;;;;;;;;;;;;
2024/04/17 05:56:55;;;;;;;4.25;0.38;;;;;;;15.74;100.00;95784.69;5128897;27;20027;-74
2024/04/17 05:59:46;;;;;;;1.23;0.80;;;;;;;15.65;100.00;95789.25;5094417;28;20486;-76
2024/04/17 06:02:46;;;;;;;2.75;0.85;;;;;;;15.71;100.00;95796.66;5099511;27;20096;-75
2024/04/17 06:09:05;;;;;;;1.42;0.90;;;;;;;15.77;100.00;95783.50;5118426;27;20454;-75
2024/04/17 06:11:41;;;;;;;2.90;0.65;;;;;;;15.98;100.00;95783.81;5124362;27;20157;-76
2024/04/17 06:14:42;;;;;;;;;;;;;;;;;;;;;
2024/04/17 06:20:35;;;;;;;0.25;0.25;;;;;;;15.89;100.00;95780.28;5088910;28;20042;-75
2024/04/17 06:23:09;;;;;;;0.30;0.30;;;;;;;16.13;100.00;95796.44;5103640;27;20139;-75
2024/04/17 06:25:52;;;;;;;0.43;0.35;;;;;;;16.18;100.00;95783.25;5100150;28;20414;-75
2024/04/17 06:28:45;;;;;;;0.73;0.68;;;;;;;16.37;100.00;95786.56;5112650;27;20035;-75
2024/04/17 06:31:40;;;;;;;;;;;;;;;;;;;;;
2024/04/17 06:34:09;;;;;;;0.75;0.60;;;;;;;16.59;100.00;95764.25;5123708;27;20015;-75
2024/04/17 06:37:32;;;;;;;1.33;0.95;;;;;;;16.89;100.00;95786.91;5117215;27;20035;-75
2024/04/17 06:46:48;;;;;;;0.80;0.50;;;;;;;16.73;100.00;95785.13;5111780;27;20027;-75
2024/04/17 06:49:41;;;;;;;1.48;0.45;;;;;;;16.72;100.00;95792.38;5088642;28;20043;-77
2024/04/17 06:52:51;;;;;;;;;;;;;;;;;;;;;
2024/04/17 06:55:32;;;;;;;0.70;0.65;;;;;;;16.39;100.00;95792.66;5124183;27;20414;-75
2024/04/17 07:02:21;;;;;;;0.93;0.65;;;;;;;16.12;100.00;95775.84;5098583;27;20524;-76
2024/04/17 07:08:54;;;;;;;0.10;0.10;;;;;;;15.77;100.00;95762.78;5110109;28;20031;-73
2024/04/17 07:15:00;;;;;;;0.20;0.20;;;;;;;15.88;100.00;95769.66;5082305;28;20071;-75
2024/04/17 07:18:09;;;;;;;0.65;0.65;;;;;;;15.92;100.00;95774.56;5088666;28;20513;-74
2024/04/17 07:21:10;;;;;;;;;;;;;;;;;;;;;
2024/04/17 07:23:59;;;;;;;;;;;;;;;;;;;;;
2024/04/17 07:26:46;;;;;;;0.82;0.77;;;;;;;16.22;100.00;95763.03;5089453;28;20036;-75
2024/04/17 07:29:52;;;;;;;4.95;1.58;;;;;;;16.24;100.00;95769.06;5089022;28;20127;-74
2024/04/17 07:32:56;;;;;;;2.60;1.60;;;;;;;16.16;100.00;95738.59;5089448;28;20047;-74
2024/04/17 07:35:37;;;;;;;0.63;0.63;;;;;;;16.16;100.00;95741.28;5054181;28;20134;-74
2024/04/17 07:38:46;;;;;;;0.95;0.93;;;;;;;16.26;100.00;95775.16;5089277;28;20026;-75
2024/04/17 07:41:22;;;;;;;2.85;1.15;;;;;;;16.19;100.00;95771.47;5089167;28;20024;-74
2024/04/17 07:47:59;;;;;;;16.35;1.77;;;;;;;15.88;100.00;95758.88;5089113;28;20462;-75
2024/04/17 07:51:06;;;;;;;2.25;1.30;;;;;;;15.88;100.00;95758.88;5087141;28;20043;-74
2024/04/17 07:53:51;;;;;;;0.50;0.40;;;;;;;15.97;100.00;95753.31;5072379;28;20058;-75
2024/04/17 07:56:39;;;;;;;0.52;0.52;;;;;;;15.97;100.00;95753.31;5088810;28;20031;-74
2024/04/17 07:59:18;;;;;;;0.57;0.45;;;;;;;15.94;100.00;95759.03;5088996;28;20059;-75
2024/04/17 08:09:38;;;;;;;3.67;2.33;;;;;;;15.76;100.00;95777.28;5043902;28;20025;-74
2024/04/17 08:12:36;;;;;;;0.57;0.57;;;;;;;15.51;100.00;95779.13;5095521;28;20178;-75
2024/04/17 08:15:38;;;;;;;;;;;;;;;;;;;;;
2024/04/17 08:28:13;;;;;;;1.65;0.63;;;;;;;15.01;100.00;95779.22;5108471;28;20835;-73
2024/04/17 08:31:03;;;;;;;0.50;0.40;;;;;;;15.07;100.00;95777.75;5101133;28;20088;-73
2024/04/17 08:33:45;;;;;;;0.35;0.35;;;;;;;15.12;100.00;95788.84;5100688;28;20030;-75
2024/04/17 08:36:36;;;;;;;0.73;0.73;;;;;;;15.34;100.00;95795.44;5139671;27;20495;-75
2024/04/17 08:42:48;;;;;;;0.40;0.40;;;;;;;15.55;100.00;95761.63;5091988;28;20093;-74
2024/04/17 08:46:03;;;;;;;1.10;0.52;;;;;;;15.53;100.00;95755.59;5073740;28;20047;-75
2024/04/17 08:48:37;;;;;;;0.10;0.00;;;;;;;15.64;100.00;95760.63;5091556;28;20028;-74
2024/04/17 08:54:47;;;;;;;;;;;;;;;;;;;;;
2024/04/17 08:57:24;;;;;;;2.03;0.38;;;;;;;15.90;100.00;95768.50;5088263;28;20016;-74
2024/04/17 09:00:12;;;;;;;0.08;0.08;;;;;;;15.81;100.00;95750.63;5053999;28;20032;-74
2024/04/17 09:02:53;;;;;;;0.15;0.15;;;;;;;15.64;100.00;95740.91;5087195;28;20059;-74
2024/04/17 09:05:53;;;;;;;0.47;0.47;;;;;;;15.65;100.00;95748.81;5070391;28;20145;-75
2024/04/17 09:08:46;;;;;;;0.30;0.30;;;;;;;15.52;100.00;95747.66;5037436;28;20149;-74
2024/04/17 09:11:49;;;;;;;0.03;0.03;;;;;;;15.46;100.00;95749.13;5058426;28;20052;-74
2024/04/17 09:14:21;;;;;;;0.15;0.15;;;;;;;15.46;100.00;95740.22;5051643;28;20769;-75
2024/04/17 09:20:31;;;;;;;0.68;0.60;;;;;;;15.50;100.00;95742.44;5024283;28;20114;-74
2024/04/17 09:23:28;;;;;;;0.00;0.00;;;;;;;15.44;100.00;95726.06;5036212;28;20091;-74
2024/04/17 09:30:00;;;;;;;;;;;;;;;;;;;;;
2024/04/17 09:32:31;;;;;;;;;;;;;;;15.57;100.00;95708.38;5004681;28;20042;-75
2024/04/17 09:35:24;;;;;;;0.10;0.10;;;;;;;15.66;100.00;95693.88;5002766;28;20010;-74
2024/04/17 09:38:26;;;;;;;0.10;0.10;;;;;;;15.95;100.00;95711.34;5051009;28;20036;-74
2024/04/17 09:41:10;;;;;;;0.08;0.08;;;;;;;16.10;100.00;95706.91;5061412;28;20041;-74
2024/04/17 09:44:12;;;;;;;0.85;0.45;;;;;;;16.41;100.00;95697.00;5062447;28;20490;-75
2024/04/17 09:47:00;;;;;;;0.17;0.17;;;;;;;16.78;100.00;95682.81;5067911;28;20040;-75
2024/04/17 09:49:33;;;;;;;0.40;0.30;;;;;;;17.63;100.00;95656.47;5052247;28;20067;-75
2024/04/17 09:52:23;;;;;;;0.22;0.20;;;;;;;18.53;100.00;95648.97;5050596;28;20040;-75
2024/04/17 09:55:17;;;;;;;;;;;;;;;;;;;;;
2024/04/17 09:58:13;;;;;;;0.10;0.10;;;;;;;19.70;100.00;95603.19;5052469;28;20398;-75
2024/04/17 10:01:05;;;;;;;0.10;0.10;;;;;;;20.64;100.00;95606.19;5052835;28;20119;-76
2024/04/17 10:03:49;;;;;;;0.17;0.17;;;;;;;21.17;100.00;95607.13;5068763;28;20086;-76
2024/04/17 10:06:54;;;;;;;0.20;0.17;;;;;;;21.41;100.00;95595.66;5068652;28;20488;-76
2024/04/17 10:09:47;;;;;;;0.10;0.10;;;;;;;22.46;100.00;95601.72;5035043;28;20060;-76
2024/04/17 10:17:12;;;;;;;;;;;;;;;;;;;;;
2024/04/17 10:23:48;;;;;;;0.10;0.10;;;;;;;24.14;97.33;95570.91;4972511;28;20073;-76
2024/04/17 10:26:44;;;;;;;;;;;;;;;;;;;;;
2024/04/17 10:29:48;;;;;;;0.00;0.00;;;;;;;25.56;88.36;95559.28;4972488;28;20039;-74
2024/04/17 10:33:05;;;;;;;15.35;0.35;;;;;;;25.29;88.66;95562.41;4968778;28;20034;-75
2024/04/17 10:36:54;;;;;;;;;;;;;;;;;;;;;
2024/04/17 10:39:04;;;;;;;;;;;;;;;;;;;;;
2024/04/17 10:41:51;;;;;;;0.00;0.00;;;;;;;23.64;100.00;95564.69;5066212;28;20062;-77
2024/04/17 10:45:05;;;;;;;0.00;0.00;;;;;;;23.43;97.24;95567.81;5075048;28;20039;-77
2024/04/17 10:47:45;;;;;;;0.00;0.00;;;;;;;23.44;100.00;95572.22;5075248;28;20121;-76
2024/04/17 10:50:39;;;;;;;0.50;0.50;;;;;;;22.34;100.00;95578.09;5075619;28;20058;-76
2024/04/17 10:53:28;;;;;;;;;;;;;;;;;;;;;
2024/04/17 10:59:39;;;;;;;0.70;0.70;;;;;;;21.55;100.00;95572.81;5077524;28;20442;-77
2024/04/17 11:06:01;;;;;;;1.00;0.38;;;;;;;20.20;100.00;95590.31;5077275;28;20040;-77
2024/04/17 11:09:20;;;;;;;1.08;0.75;;;;;;;19.31;100.00;95638.13;5074526;28;20494;-76
2024/04/17 11:12:18;;;;;;;2.00;1.33;;;;;;;18.93;100.00;95654.66;5076956;28;20477;-77
2024/04/17 11:15:32;;;;;;;0.35;0.35;;;;;;;18.52;100.00;95669.00;5085781;28;20031;-77
2024/04/17 11:21:50;;;;;;;1.75;0.63;;;;;;;19.93;100.00;95655.31;5009629;28;20108;-77
2024/04/17 11:25:09;;;;;;;0.38;0.28;;;;;;;22.30;100.00;95650.41;5010057;28;20034;-77
2024/04/17 11:28:26;;;;;;;0.35;0.20;;;;;;;22.80;100.00;95659.66;5091559;28;20407;-78
2024/04/17 11:31:43;;;;;;;;;;;;;;;;;;;;;
2024/04/17 11:34:47;;;;;;;0.98;0.90;;;;;;;19.17;100.00;95694.06;5070762;28;20048;-78
2024/04/17 11:41:06;;;;;;;2.85;0.60;;;;;;;16.85;100.00;95718.06;5087961;28;20040;-76
2024/04/17 11:44:24;;;;;;;1.45;1.05;;;;;;;16.25;100.00;95737.53;5080777;28;20058;-77
2024/04/17 11:47:00;;;;;;;0.65;0.52;;;;;;;15.33;100.00;95759.56;5072949;28;20519;-75
2024/04/17 11:50:01;;;;;;;;;;;;;;;;;;;;;
2024/04/17 11:53:15;;;;;;;;;;;;;;;;;;;;;
2024/04/17 11:58:46;;;;;;;0.80;0.50;;;;;;;12.99;100.00;95804.84;5048681;28;20108;-76
2024/04/17 12:01:27;;;;;;;4.22;1.73;;;;;;;12.39;100.00;95787.59;5075231;28;20433;-77
2024/04/17 12:07:41;;;;;;;1.25;1.17;;;;;;;12.25;100.00;95820.25;5091123;28;20040;-77
2024/04/17 12:10:53;;;;;;;;;;;;;;;;;;;;;
2024/04/17 12:16:44;;;;;;;;;;;;;;;;;;;;;
2024/04/17 12:19:53;;;;;;;0.77;0.77;;;;;;;12.06;100.00;95803.41;5047519;28;20029;-76
2024/04/17 12:23:04;;;;;;;1.40;0.88;;;;;;;11.92;100.00;95818.09;5071224;28;20603;-75
2024/04/17 12:29:06;;;;;;;2.58;1.08;;;;;;;11.54;100.00;95820.81;4970447;28;20082;-77
2024/04/17 12:31:59;;;;;;;0.10;0.10;;;;;;;11.43;100.00;95820.00;5018739;28;20083;-77
2024/04/17 12:35:03;;;;;;;0.13;0.13;;;;;;;11.43;100.00;95806.63;5071023;28;20028;-77
2024/04/17 12:41:06;;;;;;;0.68;0.65;;;;;;;11.19;100.00;95824.97;5055747;28;20032;-77
2024/04/17 12:44:22;;;;;;;;;;;;;;;;;;;;;
2024/04/17 12:47:29;;;;;;;0.63;0.60;;;;;;;11.41;100.00;95835.34;5070484;28;20419;-78
2024/04/17 12:56:19;;;;;;;2.58;1.15;;;;;;;11.32;100.00;95817.47;5055920;28;20036;-77
2024/04/17 13:02:13;;;;;;;2.75;0.43;;;;;;;10.93;100.00;95852.38;5070503;28;20032;-77
2024/04/17 13:05:14;;;;;;;0.75;0.52;;;;;;;10.53;100.00;95847.94;5052608;28;20024;-76
2024/04/17 13:08:06;;;;;;;7.35;1.15;;;;;;;10.71;100.00;95861.50;5047315;28;20021;-77
2024/04/17 13:10:55;;;;;;;0.90;0.30;;;;;;;10.79;100.00;95861.66;5059237;28;20094;-77
2024/04/17 13:13:37;;;;;;;;;;;;;;;;;;;;;
2024/04/17 13:16:13;;;;;;;0.20;0.20;;;;;;;10.85;100.00;95893.22;5070296;28;20032;-76
2024/04/17 13:22:16;;;;;;;0.40;0.40;;;;;;;10.81;100.00;95918.53;5042605;28;20051;-76
2024/04/17 13:28:05;;;;;;;0.00;0.00;;;;;;;10.67;100.00;95908.22;5048443;28;20198;-77
2024/04/17 13:30:56;;;;;;;0.47;0.45;;;;;;;10.74;100.00;95931.59;5069986;28;20081;-76
2024/04/17 13:46:42;;;;;;;;;;;;;;;;;;;;;
2024/04/17 13:52:37;;;;;;;1.40;0.90;;;;;;;10.23;100.00;96022.50;5073933;28;20043;-74
2024/04/17 13:55:40;;;;;;;0.70;0.70;;;;;;;10.03;100.00;96015.28;5057049;28;20063;-76
2024/04/17 13:58:32;;;;;;;2.15;0.68;;;;;;;9.79;100.00;95999.50;5073112;28;20045;-74
2024/04/17 14:01:09;;;;;;;;;;;;;;;9.83;100.00;96021.47;5055120;28;20020;-74
2024/04/17 14:04:00;;;;;;;0.52;0.52;;;;;;;9.73;100.00;96020.53;5049891;28;19916;-74
2024/04/17 14:06:36;;;;;;;0.63;0.30;;;;;;;9.79;100.00;96033.38;5031622;28;20524;-74
2024/04/17 14:09:27;;;;;;;0.05;0.05;;;;;;;9.74;100.00;96020.41;5014486;28;20187;-74
2024/04/17 14:12:15;;;;;;;;;;;;;;;;;;;;;
2024/04/17 14:14:55;;;;;;;0.80;0.70;;;;;;;9.75;100.00;96005.25;5036208;28;20049;-75
2024/04/17 14:17:57;;;;;;;0.52;0.47;;;;;;;9.80;100.00;95998.53;5025966;28;20064;-75
2024/04/17 14:21:22;;;;;;;;;;;;;;;;;;;;;
2024/04/17 14:24:21;;;;;;;0.50;0.50;;;;;;;9.89;100.00;96014.75;5047942;28;20025;-74
2024/04/17 14:27:58;;;;;;;0.35;0.35;;;;;;;9.76;100.00;96002.44;5046638;28;20098;-84
2024/04/17 14:31:02;;;;;;;0.93;0.32;;;;;;;9.76;100.00;96007.78;5063023;28;20030;-84
2024/04/17 14:34:04;;;;;;;1.27;0.43;;;;;;;9.93;100.00;95987.69;5069226;28;20032;-81
2024/04/17 14:36:48;;;;;;;0.05;0.05;;;;;;;9.95;100.00;95967.03;5078407;28;20184;-83
2024/04/17 14:40:09;;;;;;;;;;;;;;;;;;;;;
2024/04/17 14:46:40;;;;;;;0.00;0.00;;;;;;;9.74;100.00;95977.69;5071083;28;20042;-83
2024/04/17 14:52:59;;;;;;;;;;;;;;;;;;;;;
2024/04/17 14:56:04;;;;;;;;;;;;;;;;;;;;;
2024/04/17 14:59:10;;;;;;;0.22;0.15;;;;;;;9.78;100.00;96000.47;5080651;28;20422;-80
2024/04/17 15:02:23;;;;;;;;;;;;;;;;;;;;;
2024/04/17 15:12:16;;;;;;;2.30;0.75;;;;;;;10.00;100.00;96026.22;4981665;28;20502;-80
2024/04/17 15:15:22;;;;;;;2.10;1.63;;;;;;;10.10;100.00;96045.84;4961331;28;20542;-81
2024/04/17 15:18:38;;;;;;;;;;;;;;;;;;;;;
2024/04/17 15:21:52;;;;;;;;;;;;;;;;;;;;;
2024/04/17 15:28:07;;;;;;;1.35;1.25;;;;;;;10.03;100.00;96014.47;5040141;28;20476;-84
2024/04/17 15:31:15;;;;;;;;;;;;;;;;;;;;;
2024/04/17 15:34:09;;;;;;;0.43;0.43;;;;;;;9.86;100.00;95997.19;5086712;28;20490;-85
2024/04/17 15:40:38;;;;;;;0.40;0.40;;;;;;;9.74;100.00;95974.19;5070440;28;20032;-84
2024/04/17 15:43:59;;;;;;;0.38;0.38;;;;;;;9.86;100.00;95996.31;5072340;28;20103;-85
2024/04/17 15:47:11;;;;;;;0.75;0.55;;;;;;;9.96;100.00;96003.44;5039167;28;20052;-84
2024/04/17 15:54:02;;;;;;;0.50;0.50;;;;;;;9.64;100.00;96006.13;4972624;28;20479;-86
2024/04/17 15:56:45;;;;;;;3.00;1.80;;;;;;;9.48;100.00;95994.16;5088046;28;20028;-84
2024/04/17 15:59:52;;;;;;;1.98;1.30;;;;;;;9.63;100.00;95996.41;5106561;28;20024;-84
2024/04/17 16:03:22;;;;;;;1.27;0.88;;;;;;;9.76;100.00;95996.25;5063582;28;20090;-86
2024/04/17 16:06:15;;;;;;;0.73;0.52;;;;;;;9.89;100.00;96004.94;5013393;28;20098;-83
2024/04/17 16:09:32;;;;;;;1.35;0.75;;;;;;;9.97;100.00;96037.16;5090383;28;20036;-83
2024/04/17 16:12:49;;;;;;;1.00;0.98;;;;;;;9.77;100.00;95996.13;5008066;28;20050;-81
2024/04/17 16:15:40;;;;;;;0.50;0.50;;;;;;;10.11;100.00;96036.03;4978850;28;20041;-82
2024/04/17 16:18:26;;;;;;;0.25;0.25;;;;;;;9.99;100.00;96018.34;5073941;28;20020;-82
2024/04/17 16:24:42;;;;;;;;;;;;;;;;;;;;;
2024/04/17 16:27:48;;;;;;;1.27;1.05;;;;;;;9.98;100.00;96001.47;5076888;28;20027;-84
2024/04/17 16:30:43;;;;;;;;;;;;;;;;;;;;;
2024/04/17 16:33:25;;;;;;;0.45;0.40;;;;;;;9.94;100.00;95985.84;5102058;28;20028;-84
2024/04/17 16:36:35;;;;;;;1.02;0.90;;;;;;;9.94;100.00;95992.03;5091012;28;20060;-83
2024/04/17 16:39:44;;;;;;;;;;;;;;;;;;;;;
2024/04/17 16:46:15;;;;;;;1.73;1.55;;;;;;;9.82;100.00;96030.44;5073497;28;20036;-82
2024/04/17 16:52:39;;;;;;;0.70;0.70;;;;;;;9.81;100.00;96007.41;5087636;28;20075;-73
2024/04/17 16:55:37;;;;;;;;;;;;;;;;;;;;;
2024/04/17 17:01:57;;;;;;;;;;;;;;;;;;;;;
2024/04/17 17:05:07;;;;;;;1.15;0.85;;;;;;;9.97;100.00;95999.78;5083352;28;20052;-73
2024/04/17 17:08:54;;;;;;;2.50;0.65;;;;;;;9.98;100.00;96014.84;5055211;28;20039;-73
2024/04/17 17:11:37;;;;;;;2.17;1.20;;;;;;;9.99;100.00;96013.03;5061084;28;20148;-72
2024/04/17 17:14:39;;;;;;;3.22;1.63;;;;;;;9.97;100.00;95998.94;5080511;28;20032;-73
2024/04/17 17:20:42;;;;;;;0.40;0.38;;;;;;;9.99;100.00;95992.50;5070778;28;20729;-73
2024/04/17 17:23:15;;;;;;;1.83;0.85;;;;;;;10.02;100.00;95980.72;5089701;28;20128;-75
2024/04/17 17:26:30;;;;;;;3.67;1.67;;;;;;;10.17;100.00;95977.63;5073153;28;20115;-73
2024/04/17 17:33:13;;;;;;;;;;;;;;;;;;;;;
2024/04/17 17:36:22;;;;;;;2.95;1.73;;;;;;;9.90;100.00;95995.09;5091779;28;20032;-72
2024/04/17 17:39:18;;;;;;;2.83;2.55;;;;;;;9.86;100.00;95994.50;5091788;28;20035;-73
2024/04/17 17:42:07;;;;;;;1.25;1.15;;;;;;;9.86;100.00;95986.50;5091443;28;20028;-72
2024/04/17 17:48:25;;;;;;;0.55;0.55;;;;;;;9.69;100.00;96019.09;5077625;28;20399;-73
2024/04/17 17:51:30;;;;;;;;;;;;;;;;;;;;;
2024/04/17 17:55:13;;;;;;;;;;;;;;;;;;;;;
2024/04/17 18:01:06;;;;;;;25.67;5.18;;;;;;;9.93;100.00;96065.13;5048559;28;20056;-74
2024/04/17 18:07:15;;;;;;;;;;;;;;;;;;;;;
2024/04/17 18:10:18;;;;;;;;;;;;;;;;;;;;;
2024/04/17 18:13:10;;;;;;;;;;;;;;;;;;;;;
2024/04/17 18:19:51;;;;;;;;;;;;;;;;;;;;;
2024/04/17 18:26:23;;;;;;;;;;;;;;;;;;;;;
2024/04/17 18:29:29;;;;;;;3.63;2.85;;;;;;;9.99;100.00;96151.91;4922567;28;20036;-74
2024/04/17 18:32:56;;;;;;;;;;;;;;;;;;;;;
2024/04/17 18:36:13;;;;;;;;;;;;;;;;;;;;;
2024/04/17 18:39:27;;;;;;;;;;;;;;;;;;;;;
2024/04/17 18:42:44;;;;;;;0.32;0.32;;;;;;;9.85;100.00;96145.00;5052346;28;20035;-79
2024/04/17 18:45:59;;;;;;;0.28;0.28;;;;;;;9.83;100.00;96117.59;5072088;28;20033;-78
2024/04/17 18:49:07;;;;;;;0.13;0.13;;;;;;;9.77;100.00;96115.41;5050249;28;20130;-77
2024/04/17 18:51:54;;;;;;;0.17;0.17;;;;;;;9.77;100.00;96112.75;5078117;28;20052;-77
2024/04/17 18:54:40;;;;;;;0.10;0.10;;;;;;;9.72;100.00;96122.97;5072851;28;20032;-77
2024/04/17 18:57:50;;;;;;;0.25;0.25;;;;;;;9.74;100.00;96127.22;5072722;28;20056;-77
2024/04/17 19:00:49;;;;;;;0.20;0.20;;;;;;;9.73;100.00;96097.94;5057513;28;20032;-77
2024/04/17 19:07:35;;;;;;;;;;;;;;;;;;;;;
2024/04/17 19:10:28;;;;;;;;;;;;;;;;;;;;;
2024/04/17 19:13:28;;;;;;;0.85;0.38;;;;;;;9.85;100.00;96117.44;5112874;28;20043;-77
2024/04/17 19:16:35;;;;;;;3.08;1.13;;;;;;;9.80;100.00;96115.16;5115295;27;20096;-77
2024/04/17 19:23:29;;;;;;;0.70;0.30;;;;;;;9.64;100.00;96112.03;5103885;27;20529;-78
2024/04/17 19:30:05;;;;;;;0.00;0.00;;;;;;;9.22;100.00;96121.69;5122090;27;21545;-75
2024/04/17 19:33:06;;;;;;;0.30;0.30;;;;;;;9.27;100.00;96131.03;5068965;28;20062;-77
2024/04/17 19:36:34;;;;;;;0.10;0.10;;;;;;;9.08;100.00;96138.78;5113081;27;20116;-75
2024/04/17 19:39:32;;;;;;;;;;;;;;;;;;;;;
2024/04/17 19:42:40;;;;;;;0.00;0.00;;;;;;;8.96;100.00;96107.75;5123725;27;20015;-77
2024/04/17 19:45:51;;;;;;;0.10;0.10;;;;;;;8.98;100.00;96103.13;5132541;27;20054;-75
2024/04/17 19:49:37;;;;;;;;;;;;;;;;;;;;;
2024/04/17 19:52:57;;;;;;;0.52;0.52;;;;;;;8.80;100.00;96157.88;5036295;28;20045;-78
2024/04/17 19:55:43;;;;;;;0.28;0.10;;;;;;;8.79;100.00;96163.34;5108056;27;20038;-78
2024/04/17 19:58:30;;;;;;;0.08;0.08;;;;;;;8.84;100.00;96194.00;5116563;27;20019;-77